createdAt,value
2023-01-11T00:01:18.914Z,88.29
2023-01-11T00:03:45.241Z,88.80
2023-01-11T00:06:11.572Z,88.56
2023-01-11T00:08:37.902Z,89.46
2023-01-11T00:11:04.264Z,90.68
2023-01-11T00:13:30.590Z,90.12
2023-01-11T00:15:56.960Z,89.13
2023-01-11T00:18:23.283Z,88.74
2023-01-11T00:20:49.604Z,87.91
2023-01-11T00:23:15.904Z,88.28
2023-01-11T00:25:42.240Z,88.23
2023-01-11T00:28:08.597Z,88.61
2023-01-11T00:30:35.941Z,88.37
2023-01-11T00:33:02.322Z,87.79
2023-01-11T00:35:28.708Z,87.55
2023-01-11T00:37:55.100Z,87.34
2023-01-11T00:40:21.487Z,87.54
2023-01-11T00:43:17.303Z,87.10
2023-01-11T00:46:02.343Z,87.22
2023-01-11T00:48:28.692Z,87.19
2023-01-11T00:50:55.036Z,87.36
2023-01-11T00:53:21.401Z,87.04
2023-01-11T00:55:47.734Z,86.51
2023-01-11T00:58:14.086Z,86.41
2023-01-11T01:00:40.529Z,86.33
2023-01-11T01:03:06.857Z,86.08
2023-01-11T01:05:33.629Z,85.38
2023-01-11T01:07:59.935Z,85.12
2023-01-11T01:10:26.273Z,85.17
2023-01-11T01:13:11.488Z,84.79
2023-01-11T01:15:37.868Z,84.69
2023-01-11T01:18:04.186Z,84.76
2023-01-11T01:20:30.533Z,84.62
2023-01-11T01:22:56.886Z,84.37
2023-01-11T01:25:23.301Z,84.44
2023-01-11T01:27:49.617Z,84.17
2023-01-11T01:30:15.980Z,84.05
2023-01-11T01:32:42.350Z,83.96
2023-01-11T01:35:08.694Z,83.38
2023-01-11T01:37:35.164Z,83.08
2023-01-11T01:40:01.479Z,83.12
2023-01-11T01:42:27.873Z,82.54
2023-01-11T01:44:54.199Z,82.92
2023-01-11T01:47:20.511Z,82.67
2023-01-11T01:49:46.879Z,82.74
2023-01-11T01:52:13.204Z,82.97
2023-01-11T01:54:39.625Z,82.78
2023-01-11T01:57:05.959Z,82.94
2023-01-11T01:59:32.331Z,82.18
2023-01-11T02:01:58.706Z,82.55
2023-01-11T02:04:25.089Z,83.90
2023-01-11T02:06:51.475Z,83.78
2023-01-11T02:09:17.863Z,82.89
2023-01-11T02:11:45.127Z,82.51
2023-01-11T02:14:11.441Z,82.58
2023-01-11T02:16:38.385Z,82.80
2023-01-11T02:19:04.727Z,82.89
2023-01-11T02:21:31.044Z,82.41
2023-01-11T02:23:57.437Z,82.39
2023-01-11T02:26:23.740Z,82.56
2023-01-11T02:28:50.128Z,82.00
2023-01-11T02:31:16.497Z,81.98
2023-01-11T02:33:42.849Z,81.72
2023-01-11T02:36:09.690Z,81.57
2023-01-11T02:38:36.021Z,81.21
2023-01-11T02:41:02.359Z,81.04
2023-01-11T02:43:47.543Z,80.81
2023-01-11T02:46:13.924Z,80.64
2023-01-11T02:48:40.325Z,80.66
2023-01-11T02:51:06.654Z,80.41
2023-01-11T02:53:32.998Z,80.54
2023-01-11T02:55:59.323Z,81.03
2023-01-11T02:58:25.646Z,80.54
2023-01-11T03:00:51.939Z,80.22
2023-01-11T03:03:18.255Z,80.56
2023-01-11T03:05:44.613Z,80.34
2023-01-11T03:08:10.975Z,80.33
2023-01-11T03:10:37.363Z,80.89
2023-01-11T03:13:03.709Z,80.34
2023-01-11T03:15:30.261Z,80.18
2023-01-11T03:17:56.616Z,80.58
2023-01-11T03:20:22.976Z,80.44
2023-01-11T03:22:49.302Z,79.98
2023-01-11T03:25:15.651Z,80.14
2023-01-11T03:27:41.980Z,80.46
2023-01-11T03:30:08.339Z,80.74
2023-01-11T03:32:34.660Z,80.45
2023-01-11T03:35:00.967Z,80.65
2023-01-11T03:37:27.286Z,80.62
2023-01-11T03:39:53.615Z,80.47
2023-01-11T03:42:19.936Z,80.31
2023-01-11T03:44:46.264Z,80.20
2023-01-11T03:47:12.589Z,80.33
2023-01-11T03:49:38.936Z,80.54
2023-01-11T03:52:05.289Z,80.06
2023-01-11T03:54:31.598Z,80.07
2023-01-11T03:56:57.902Z,79.87
2023-01-11T03:59:24.265Z,80.11
2023-01-11T04:01:50.609Z,80.02
2023-01-11T04:04:16.959Z,80.00
2023-01-11T04:06:43.392Z,79.72
2023-01-11T04:09:09.734Z,79.53
2023-01-11T04:11:36.040Z,79.39
2023-01-11T04:14:02.393Z,79.96
2023-01-11T04:16:28.837Z,79.74
2023-01-11T04:18:55.183Z,79.94
2023-01-11T04:21:21.525Z,79.89
2023-01-11T04:23:47.845Z,79.82
2023-01-11T04:26:14.272Z,79.62
2023-01-11T04:28:40.614Z,79.70
2023-01-11T04:31:07.079Z,79.62
2023-01-11T04:33:33.436Z,79.41
2023-01-11T04:35:59.774Z,79.54
2023-01-11T04:38:27.277Z,79.12
2023-01-11T04:41:13.584Z,79.49
2023-01-11T04:43:39.918Z,79.52
2023-01-11T04:46:06.799Z,79.19
2023-01-11T04:48:33.730Z,78.81
2023-01-11T04:51:00.085Z,78.58
2023-01-11T04:53:26.421Z,78.29
2023-01-11T04:55:53.678Z,78.23
2023-01-11T04:58:20.009Z,78.29
2023-01-11T05:00:46.389Z,78.01
2023-01-11T05:03:12.762Z,78.14
2023-01-11T05:05:39.069Z,77.91
2023-01-11T05:08:05.432Z,77.63
2023-01-11T05:10:31.736Z,77.83
2023-01-11T05:12:58.060Z,77.31
2023-01-11T05:15:24.396Z,77.78
2023-01-11T05:17:50.710Z,77.66
2023-01-11T05:20:17.028Z,77.37
2023-01-11T05:22:43.401Z,77.33
2023-01-11T05:25:09.704Z,77.37
2023-01-11T05:27:36.067Z,77.23
2023-01-11T05:30:02.417Z,77.32
2023-01-11T05:32:28.785Z,77.42
2023-01-11T05:34:55.140Z,77.37
2023-01-11T05:37:21.462Z,77.51
2023-01-11T05:39:47.785Z,77.55
2023-01-11T05:42:14.169Z,77.31
2023-01-11T05:44:59.805Z,77.51
2023-01-11T05:47:26.129Z,77.55
2023-01-11T05:49:52.455Z,77.58
2023-01-11T05:52:18.782Z,77.28
2023-01-11T05:54:45.095Z,77.97
2023-01-11T05:57:12.017Z,77.67
2023-01-11T05:59:38.349Z,78.40
2023-01-11T06:02:04.679Z,78.16
2023-01-11T06:04:31.037Z,78.29
2023-01-11T06:06:57.426Z,78.76
2023-01-11T06:09:23.846Z,78.18
2023-01-11T06:11:50.690Z,78.22
2023-01-11T06:14:16.990Z,78.18
2023-01-11T06:16:43.331Z,78.20
2023-01-11T06:19:11.506Z,78.23
2023-01-11T06:21:38.880Z,78.03
2023-01-11T06:24:05.198Z,78.32
2023-01-11T06:26:32.387Z,78.25
2023-01-11T06:28:58.722Z,78.31
2023-01-11T06:31:25.118Z,78.24
2023-01-11T06:33:51.481Z,78.33
2023-01-11T06:36:17.821Z,78.32
2023-01-11T06:38:44.173Z,78.79
2023-01-11T06:41:10.637Z,78.51
2023-01-11T06:43:37.204Z,78.21
2023-01-11T06:46:03.572Z,78.41
2023-01-11T06:48:30.009Z,78.45
2023-01-11T06:50:56.426Z,78.65
2023-01-11T06:53:22.763Z,78.69
2023-01-11T06:55:49.117Z,78.23
2023-01-11T06:58:15.457Z,78.14
2023-01-11T07:00:42.009Z,78.74
2023-01-11T07:03:08.518Z,78.28
2023-01-11T07:05:34.923Z,78.29
2023-01-11T07:08:01.326Z,78.15
2023-01-11T07:10:27.655Z,77.85
2023-01-11T07:12:54.072Z,77.87
2023-01-11T07:15:20.445Z,78.23
2023-01-11T07:17:47.899Z,77.72
2023-01-11T07:20:14.258Z,77.86
2023-01-11T07:22:40.558Z,77.79
2023-01-11T07:25:06.916Z,77.83
2023-01-11T07:27:33.229Z,77.88
2023-01-11T07:30:02.644Z,78.36
2023-01-11T07:32:28.970Z,77.88
2023-01-11T07:34:55.371Z,77.59
2023-01-11T07:37:28.478Z,78.01
2023-01-11T07:39:55.752Z,77.91
2023-01-11T07:42:41.110Z,77.57
2023-01-11T07:45:07.433Z,77.71
2023-01-11T07:47:33.797Z,78.10
2023-01-11T07:50:00.147Z,78.25
2023-01-11T07:52:26.483Z,78.41
2023-01-11T07:54:52.831Z,78.33
2023-01-11T07:57:19.163Z,77.96
2023-01-11T07:59:45.557Z,77.90
2023-01-11T08:02:12.008Z,78.21
2023-01-11T08:04:38.341Z,78.08
2023-01-11T08:07:04.717Z,77.93
2023-01-11T08:09:31.021Z,77.84
2023-01-11T08:12:16.175Z,77.64
2023-01-11T08:14:42.585Z,77.17
2023-01-11T08:17:08.930Z,76.87
2023-01-11T08:19:35.409Z,76.83
2023-01-11T08:22:01.803Z,76.85
2023-01-11T08:24:28.190Z,76.64
2023-01-11T08:26:54.539Z,76.37
2023-01-11T08:29:20.883Z,76.08
2023-01-11T08:31:47.217Z,76.35
2023-01-11T08:34:13.546Z,76.81
2023-01-11T08:36:39.855Z,77.23
2023-01-11T08:39:06.147Z,76.94
2023-01-11T08:41:35.678Z,76.97
2023-01-11T08:44:02.206Z,77.18
2023-01-11T08:46:28.569Z,77.23
2023-01-11T08:48:54.889Z,76.99
2023-01-11T08:51:21.211Z,77.22
2023-01-11T08:53:47.585Z,77.68
2023-01-11T08:56:13.964Z,77.00
2023-01-11T08:58:40.289Z,77.13
2023-01-11T09:01:09.208Z,77.12
2023-01-11T09:03:35.547Z,77.90
2023-01-11T09:06:01.860Z,77.58
2023-01-11T09:08:28.187Z,77.31
2023-01-11T09:10:56.378Z,77.49
2023-01-11T09:13:22.699Z,77.53
2023-01-11T09:15:49.087Z,77.42
2023-01-11T09:18:15.403Z,77.57
2023-01-11T09:20:41.725Z,77.57
2023-01-11T09:23:08.026Z,77.47
2023-01-11T09:25:34.366Z,77.74
2023-01-11T09:28:00.696Z,77.83
2023-01-11T09:30:27.020Z,77.83
2023-01-11T09:32:54.522Z,77.80
2023-01-11T09:35:22.013Z,77.88
2023-01-11T09:37:49.256Z,77.99
2023-01-11T09:40:15.647Z,78.17
2023-01-11T09:42:43.187Z,77.77
2023-01-11T09:45:11.134Z,77.75
2023-01-11T09:47:38.565Z,77.59
2023-01-11T09:50:06.309Z,77.72
2023-01-11T09:52:36.265Z,77.76
2023-01-11T09:55:02.718Z,78.37
2023-01-11T09:57:30.967Z,77.80
2023-01-11T09:59:58.420Z,77.91
2023-01-11T10:02:24.770Z,78.14
2023-01-11T10:04:52.246Z,78.09
2023-01-11T10:07:19.806Z,78.37
2023-01-11T10:18:37.502Z,78.65
2023-01-11T10:18:44.371Z,78.82
2023-01-11T10:20:52.291Z,78.35
2023-01-11T10:23:18.642Z,79.05
2023-01-11T10:25:51.686Z,78.75
2023-01-11T10:28:23.192Z,78.37
2023-01-11T10:31:09.819Z,78.69
2023-01-11T10:33:54.994Z,78.78
2023-01-11T10:36:21.318Z,78.33
2023-01-11T10:38:47.633Z,78.20
2023-01-11T10:41:20.217Z,78.60
2023-01-11T10:43:46.592Z,78.19
2023-01-11T10:46:12.946Z,78.07
2023-01-11T10:48:39.464Z,77.38
2023-01-11T10:51:05.804Z,77.47
2023-01-11T10:53:32.133Z,77.67
2023-01-11T10:55:58.529Z,77.49
2023-01-11T10:58:24.849Z,77.65
2023-01-11T11:00:53.108Z,78.11
2023-01-11T11:03:19.490Z,78.46
2023-01-11T11:05:45.882Z,78.37
2023-01-11T11:08:13.784Z,78.38
2023-01-11T11:10:41.003Z,78.49
2023-01-11T11:13:07.364Z,78.22
2023-01-11T11:15:33.739Z,78.36
2023-01-11T11:18:00.084Z,77.49
2023-01-11T11:20:26.851Z,77.06
2023-01-11T11:22:53.181Z,77.24
2023-01-11T11:25:19.573Z,77.49
2023-01-11T11:27:46.007Z,77.52
2023-01-11T11:30:12.361Z,77.36
2023-01-11T11:32:38.660Z,77.97
2023-01-11T11:35:04.987Z,77.79
2023-01-11T11:37:31.336Z,77.83
2023-01-11T11:39:57.978Z,77.17
2023-01-11T11:42:24.360Z,77.45
2023-01-11T11:44:50.674Z,77.13
2023-01-11T11:47:16.986Z,76.85
2023-01-11T11:49:43.372Z,77.11
2023-01-11T11:52:09.680Z,76.72
2023-01-11T11:54:36.069Z,77.44
2023-01-11T11:57:02.465Z,77.69
2023-01-11T11:59:28.835Z,77.68
2023-01-11T12:01:55.200Z,77.71
2023-01-11T12:04:21.543Z,77.57
2023-01-11T12:06:49.234Z,78.01
2023-01-11T12:09:15.694Z,78.35
2023-01-11T12:11:43.033Z,78.75
2023-01-11T12:14:09.342Z,79.40
2023-01-11T12:16:35.723Z,79.59
2023-01-11T12:19:02.142Z,79.39
2023-01-11T12:21:30.261Z,79.26
2023-01-11T12:23:56.573Z,79.44
2023-01-11T12:26:22.968Z,79.17
2023-01-11T12:28:49.264Z,78.79
2023-01-11T12:31:15.804Z,78.86
2023-01-11T12:33:44.461Z,79.24
2023-01-11T12:36:10.777Z,78.75
2023-01-11T12:38:37.114Z,79.87
2023-01-11T12:41:03.430Z,78.85
2023-01-11T12:43:29.736Z,79.20
2023-01-11T12:45:56.177Z,79.42
2023-01-11T12:48:23.234Z,79.49
2023-01-11T12:50:49.568Z,79.40
2023-01-11T12:53:15.930Z,79.74
2023-01-11T12:55:42.246Z,79.39
2023-01-11T12:58:09.109Z,79.28
2023-01-11T13:00:35.467Z,79.19
2023-01-11T13:03:01.767Z,79.69
2023-01-11T13:05:28.091Z,80.23
2023-01-11T13:07:54.428Z,79.54
2023-01-11T13:10:20.774Z,79.71
2023-01-11T13:12:47.175Z,80.03
2023-01-11T13:15:13.517Z,80.26
2023-01-11T13:17:40.004Z,80.30
2023-01-11T13:20:06.339Z,80.42
2023-01-11T13:22:32.764Z,80.48
2023-01-11T13:24:59.076Z,80.73
2023-01-11T13:27:25.494Z,80.93
2023-01-11T13:29:51.956Z,81.03
2023-01-11T13:32:18.304Z,81.02
2023-01-11T13:34:46.680Z,81.26
2023-01-11T13:37:13.658Z,81.65
2023-01-11T13:39:40.301Z,81.86
2023-01-11T13:42:06.689Z,82.18
2023-01-11T13:44:36.938Z,81.84
2023-01-11T13:47:03.490Z,81.64
2023-01-11T13:49:29.817Z,81.72
2023-01-11T13:51:56.152Z,82.49
2023-01-11T13:54:22.488Z,81.97
2023-01-11T13:56:48.800Z,81.65
2023-01-11T13:59:15.125Z,81.54
2023-01-11T14:01:41.544Z,81.76
2023-01-11T14:04:07.910Z,81.49
2023-01-11T14:06:34.251Z,82.59
2023-01-11T14:09:00.614Z,82.87
2023-01-11T14:11:26.928Z,82.67
2023-01-11T14:14:12.093Z,82.53
2023-01-11T14:16:38.411Z,82.16
2023-01-11T14:19:04.762Z,82.38
2023-01-11T14:21:31.078Z,82.97
2023-01-11T14:23:57.430Z,84.16
2023-01-11T14:26:23.745Z,85.06
2023-01-11T14:28:50.252Z,85.18
2023-01-11T14:31:16.679Z,85.82
2023-01-11T14:33:43.206Z,86.94
2023-01-11T14:36:09.546Z,87.24
2023-01-11T14:38:35.885Z,87.98
2023-01-11T14:41:02.218Z,89.26
2023-01-11T14:43:28.539Z,89.14
2023-01-11T14:45:54.838Z,89.70
2023-01-11T14:48:21.189Z,90.08
2023-01-11T14:50:47.506Z,89.29
2023-01-11T14:53:13.837Z,89.18
2023-01-11T14:55:45.031Z,89.53
2023-01-11T14:58:11.387Z,89.99
2023-01-11T15:00:37.761Z,89.84
2023-01-11T15:03:04.077Z,90.50
2023-01-11T15:05:31.224Z,90.15
2023-01-11T15:07:57.556Z,90.50
2023-01-11T15:10:23.878Z,91.65
2023-01-11T15:12:50.226Z,91.76
2023-01-11T15:15:16.601Z,91.49
2023-01-11T15:18:01.788Z,93.25
2023-01-11T15:20:28.151Z,94.47
2023-01-11T15:22:54.489Z,94.66
2023-01-11T15:25:20.787Z,95.54
2023-01-11T15:27:47.463Z,97.05
2023-01-11T15:30:13.788Z,96.22
2023-01-11T15:32:41.525Z,94.32
2023-01-11T15:35:07.865Z,93.85
2023-01-11T15:37:34.189Z,95.02
2023-01-11T15:40:00.512Z,95.00
2023-01-11T15:42:26.831Z,96.71
2023-01-11T15:44:53.185Z,98.25
2023-01-11T15:47:19.512Z,97.32
2023-01-11T15:49:45.862Z,96.94
2023-01-11T15:52:12.192Z,97.25
2023-01-11T15:54:38.498Z,97.76
2023-01-11T15:57:04.855Z,98.85
2023-01-11T15:59:31.233Z,100.00
2023-01-11T16:01:57.575Z,100.00
2023-01-11T16:04:24.009Z,99.54
2023-01-11T16:06:50.373Z,99.50
2023-01-11T16:09:16.692Z,99.84
2023-01-11T16:11:43.008Z,100.00
2023-01-11T16:14:09.307Z,100.00
2023-01-11T16:16:39.240Z,100.00
2023-01-11T16:19:05.591Z,100.00
2023-01-11T16:21:31.933Z,100.00
2023-01-11T16:23:58.326Z,100.00
2023-01-11T16:26:24.735Z,100.00
2023-01-11T16:28:51.784Z,100.00
2023-01-11T16:31:18.160Z,100.00
2023-01-11T16:33:44.628Z,100.00
2023-01-11T16:36:11.245Z,100.00
2023-01-11T16:38:37.588Z,100.00
2023-01-11T16:41:06.820Z,100.00
2023-01-11T16:43:33.657Z,100.00
2023-01-11T16:46:00.068Z,100.00
2023-01-11T16:48:26.423Z,100.00
2023-01-11T16:50:52.757Z,100.00
2023-01-11T16:53:19.088Z,100.00
2023-01-11T16:55:45.463Z,100.00
2023-01-11T16:58:11.787Z,100.00
2023-01-11T17:00:38.506Z,100.00
2023-01-11T17:03:06.612Z,100.00
2023-01-11T17:05:32.961Z,100.00
2023-01-11T17:07:59.331Z,100.00
2023-01-11T17:10:25.714Z,100.00
2023-01-11T17:12:52.027Z,100.00
2023-01-11T17:15:18.377Z,100.00
2023-01-11T17:17:44.697Z,100.00
2023-01-11T17:20:11.141Z,100.00
2023-01-11T17:22:37.477Z,100.00
2023-01-11T17:25:03.823Z,100.00
2023-01-11T17:27:30.180Z,100.00
2023-01-11T17:29:56.511Z,100.00
2023-01-11T17:32:22.924Z,100.00
2023-01-11T17:34:49.255Z,100.00
2023-01-11T17:37:15.612Z,100.00
2023-01-11T17:39:43.852Z,100.00
2023-01-11T17:42:29.130Z,100.00
2023-01-11T17:45:13.716Z,100.00
2023-01-11T17:47:40.126Z,100.00
2023-01-11T17:50:06.437Z,100.00
2023-01-11T17:52:33.449Z,100.00
2023-01-11T17:55:00.674Z,100.00
2023-01-11T17:57:27.070Z,100.00
2023-01-11T17:59:53.473Z,100.00
2023-01-11T18:02:19.875Z,100.00
2023-01-11T18:04:46.214Z,100.00
2023-01-11T18:07:12.557Z,100.00
2023-01-11T18:09:38.972Z,100.00
2023-01-11T18:12:05.281Z,100.00
2023-01-11T18:14:31.582Z,100.00
2023-01-11T18:16:57.998Z,100.00
2023-01-11T18:19:24.401Z,100.00
2023-01-11T18:21:50.731Z,100.00
2023-01-11T18:24:17.033Z,100.00
2023-01-11T18:26:43.384Z,100.00
2023-01-11T18:29:09.695Z,100.00
2023-01-11T18:31:36.074Z,100.00
2023-01-11T18:34:02.412Z,100.00
2023-01-11T18:36:30.288Z,100.00
2023-01-11T18:38:56.602Z,100.00
2023-01-11T18:41:44.465Z,100.00
2023-01-11T18:44:11.002Z,100.00
2023-01-11T18:46:37.320Z,100.00
2023-01-11T18:49:03.654Z,100.00
2023-01-11T18:51:30.038Z,100.00
2023-01-11T18:53:56.390Z,100.00
2023-01-11T18:56:22.689Z,100.00
2023-01-11T18:58:48.990Z,100.00
2023-01-11T19:01:15.338Z,100.00
2023-01-11T19:03:43.765Z,100.00
2023-01-11T19:06:13.160Z,100.00
2023-01-11T19:08:39.484Z,100.00
2023-01-11T19:11:05.806Z,100.00
2023-01-11T19:13:32.162Z,100.00
2023-01-11T19:15:58.486Z,100.00
2023-01-11T19:18:24.854Z,100.00
2023-01-11T19:20:51.198Z,100.00
2023-01-11T19:23:17.513Z,100.00
2023-01-11T19:25:47.084Z,100.00
2023-01-11T19:28:13.587Z,100.00
2023-01-11T19:30:40.357Z,100.00
2023-01-11T19:33:06.693Z,100.00
2023-01-11T19:35:33.047Z,100.00
2023-01-11T19:37:59.385Z,100.00
2023-01-11T19:40:25.700Z,100.00
2023-01-11T19:42:52.529Z,100.00
2023-01-11T19:45:19.238Z,100.00
2023-01-11T19:47:47.132Z,100.00
2023-01-11T19:50:13.470Z,100.00
2023-01-11T19:52:39.816Z,100.00
2023-01-11T19:55:06.185Z,100.00
2023-01-11T19:57:32.521Z,100.00
2023-01-11T19:59:58.861Z,100.00
2023-01-11T20:02:25.370Z,100.00
2023-01-11T20:04:51.815Z,100.00
2023-01-11T20:07:18.167Z,100.00
2023-01-11T20:09:44.975Z,100.00
2023-01-11T20:12:11.347Z,100.00
2023-01-11T20:14:39.020Z,100.00
2023-01-11T20:17:05.383Z,100.00
2023-01-11T20:19:31.743Z,100.00
2023-01-11T20:21:58.153Z,100.00
2023-01-11T20:24:28.531Z,100.00
2023-01-11T20:26:54.845Z,100.00
2023-01-11T20:29:21.174Z,99.69
2023-01-11T20:31:49.290Z,99.46
2023-01-11T20:34:17.601Z,99.43
2023-01-11T20:36:43.908Z,99.51
2023-01-11T20:39:10.237Z,98.98
2023-01-11T20:41:49.140Z,99.14
2023-01-11T20:44:16.214Z,98.82
2023-01-11T20:46:42.572Z,99.13
2023-01-11T20:49:09.045Z,97.28
2023-01-11T20:51:35.420Z,97.70
2023-01-11T20:54:01.821Z,98.32
2023-01-11T20:56:28.142Z,98.36
2023-01-11T20:58:54.636Z,97.61
2023-01-11T21:01:25.999Z,97.74
2023-01-11T21:03:52.351Z,97.65
2023-01-11T21:06:18.695Z,97.75
2023-01-11T21:08:45.128Z,97.85
2023-01-11T21:11:11.456Z,98.65
2023-01-11T21:13:37.871Z,99.30
2023-01-11T21:16:04.341Z,99.31
2023-01-11T21:21:02.149Z,99.50
2023-01-11T21:23:28.524Z,99.67
2023-01-11T21:25:54.856Z,99.42
2023-01-11T21:28:21.177Z,99.49
2023-01-11T21:30:47.512Z,99.28
2023-01-11T21:33:13.836Z,97.67
2023-01-11T21:35:40.163Z,97.83
2023-01-11T21:38:06.455Z,98.53
2023-01-11T21:40:34.190Z,98.05
2023-01-11T21:43:00.510Z,97.69
2023-01-11T21:45:26.833Z,97.26
2023-01-11T21:47:53.163Z,95.65
2023-01-11T21:50:19.482Z,95.48
2023-01-11T21:52:45.879Z,94.56
2023-01-11T21:55:12.292Z,93.23
2023-01-11T21:57:38.624Z,92.52
2023-01-11T22:00:04.950Z,93.05
2023-01-11T22:02:31.356Z,92.96
2023-01-11T22:04:58.583Z,91.93
2023-01-11T22:07:30.805Z,90.72
2023-01-11T22:10:04.669Z,90.72
2023-01-11T22:12:31.370Z,90.59
2023-01-11T22:14:57.694Z,91.17
2023-01-11T22:17:24.045Z,90.47
2023-01-11T22:19:50.380Z,89.96
2023-01-11T22:22:16.725Z,89.50
2023-01-11T22:24:43.042Z,89.32
2023-01-11T22:27:09.387Z,88.85
2023-01-11T22:29:37.471Z,89.35
2023-01-11T22:32:04.447Z,87.94
2023-01-11T22:34:30.787Z,87.01
2023-01-11T22:36:57.161Z,87.47
2023-01-11T22:39:24.242Z,86.91
2023-01-11T22:41:51.365Z,87.66
2023-01-11T22:44:17.704Z,88.13
2023-01-11T22:46:44.103Z,88.84
2023-01-11T22:49:10.476Z,87.58
2023-01-11T22:51:36.822Z,88.88
2023-01-11T22:54:03.160Z,87.39
2023-01-11T22:56:29.566Z,86.88
2023-01-11T22:58:55.895Z,88.03
2023-01-11T23:01:22.248Z,88.81
2023-01-11T23:03:48.702Z,86.94
2023-01-11T23:06:15.066Z,87.24
2023-01-11T23:08:44.436Z,85.82
2023-01-11T23:11:11.645Z,87.30
2023-01-11T23:13:54.896Z,87.00
2023-01-11T23:16:21.239Z,86.77
2023-01-11T23:18:48.482Z,88.98
2023-01-11T23:21:14.803Z,87.49
2023-01-11T23:23:41.349Z,88.74
2023-01-11T23:26:07.704Z,88.36
2023-01-11T23:28:34.089Z,88.55
2023-01-11T23:31:00.467Z,89.77
2023-01-11T23:33:26.815Z,89.42
2023-01-11T23:35:53.138Z,88.54
2023-01-11T23:38:19.456Z,88.46
2023-01-11T23:41:04.747Z,88.73
2023-01-11T23:43:31.098Z,88.52
2023-01-11T23:46:17.431Z,88.05
2023-01-11T23:48:43.778Z,87.87
2023-01-11T23:51:10.253Z,88.68
2023-01-11T23:53:36.628Z,87.86
2023-01-11T23:56:03.001Z,90.04
2023-01-11T23:58:29.318Z,87.40
